Nos coordonnées

Nous sommes à votre écoute du lundi au dimanche de 10:00 à 19:00 au :

+32 (0)495 19 89 53

 

Adresse d'exploitation Adresse de facturation
Chaussée de Nivelles, 629
6230 Buzet
Belgique
Kouter 107/2
9000 Gent
Belgique

contact @ blackhelicopters.be (n'oubliez pas de supprimer les espaces)


Nous retrouver

Il est très fortement conseillé de nous appeler avant de venir sur le terrain, nous pouvons être en mission ou en vol!

 

La carte ci-dessous est interactive, cherchez vos itinéraires, déplacez la pour vous retrouver.

News

Votre panier

Le panier est vide

Météo Charleroi

METAR
EBCI 221020Z 19012KT 9999 FEW008 BKN010 05/03 Q0993 TEMPO 4000 BR SHRA BKN011 =
EBCI 220500Z 2206/2312 19013KT 9999 SCT012 BKN018 PROB40 TEMPO 2206/2211 BKN011 PROB30 TEMPO 2206/2209 4500 -DZ BR BKN008 PROB30 TEMPO 2209/2218 4500 RA -SHRA BKN008 SCT014TCU BECMG 2218/2221 BKN008 PROB30 TEMPO 2300/2307 2000 BR -DZ BKN003 BECMG 2307/2309 SCT010 SCT020
TAF
EBCI 010520Z 0106/0212 02006KT 2000 BR BKN005 TEMPO 0106/0113 0300 FG -DZ BKN002 TEMPO 0114/0120 6000 NSW SCT011 =
Lever / Coucher : 07:21 / 15:42 UTC (Buzet 2022-12-01)